createdAt,value
2022-11-09T00:01:39.078Z,13.88
2022-11-09T00:06:31.852Z,12.10
2022-11-09T00:11:25.378Z,13.68
2022-11-09T00:16:19.812Z,12.22
2022-11-09T00:21:20.391Z,14.01
2022-11-09T00:26:15.293Z,12.40
2022-11-09T00:31:11.979Z,13.43
2022-11-09T00:36:10.418Z,13.21
2022-11-09T00:41:06.462Z,13.56
2022-11-09T00:45:58.241Z,13.48
2022-11-09T00:50:52.173Z,12.56
2022-11-09T00:55:43.939Z,12.84
2022-11-09T01:00:35.733Z,10.50
2022-11-09T01:05:27.555Z,13.94
2022-11-09T01:10:19.716Z,13.79
2022-11-09T01:15:11.634Z,12.25
2022-11-09T01:20:04.241Z,12.90
2022-11-09T01:24:55.951Z,13.23
2022-11-09T01:29:49.124Z,12.44
2022-11-09T01:34:40.809Z,13.98
2022-11-09T01:39:32.773Z,12.88
2022-11-09T01:44:28.009Z,13.92
2022-11-09T01:49:22.198Z,13.83
2022-11-09T01:54:31.644Z,13.16
2022-11-09T01:59:29.555Z,13.23
2022-11-09T02:04:27.785Z,12.01
2022-11-09T02:09:25.525Z,13.71
2022-11-09T02:14:18.954Z,13.17
2022-11-09T02:19:10.756Z,12.86
2022-11-09T02:24:02.770Z,13.05
2022-11-09T02:28:56.439Z,13.52
2022-11-09T02:33:51.652Z,12.83
2022-11-09T02:38:43.435Z,13.05
2022-11-09T02:43:36.868Z,11.97
2022-11-09T02:48:29.183Z,13.11
2022-11-09T02:53:22.533Z,12.52
2022-11-09T02:58:14.216Z,11.87
2022-11-09T03:03:07.106Z,10.93
2022-11-09T03:08:02.254Z,13.71
2022-11-09T03:12:58.917Z,11.25
2022-11-09T03:17:50.711Z,12.82
2022-11-09T03:22:45.119Z,12.58
2022-11-09T03:27:37.470Z,13.81
2022-11-09T03:32:30.242Z,12.74
2022-11-09T03:37:22.037Z,12.63
2022-11-09T03:42:14.613Z,13.29
2022-11-09T03:47:06.434Z,13.23
2022-11-09T03:51:58.122Z,13.86
2022-11-09T03:56:49.821Z,13.68
2022-11-09T04:01:41.549Z,13.37
2022-11-09T04:06:33.322Z,12.46
2022-11-09T04:11:25.758Z,12.98
2022-11-09T04:16:17.510Z,12.03
2022-11-09T04:21:09.302Z,12.24
2022-11-09T04:26:00.940Z,13.08
2022-11-09T04:30:52.884Z,12.31
2022-11-09T04:35:44.961Z,14.07
2022-11-09T04:40:36.814Z,12.00
2022-11-09T04:45:29.060Z,12.74
2022-11-09T04:50:20.828Z,12.71
2022-11-09T04:55:16.434Z,12.25
2022-11-09T05:00:08.913Z,13.73
2022-11-09T05:05:00.557Z,11.74
2022-11-09T05:09:52.225Z,11.99
2022-11-09T05:14:43.916Z,11.53
2022-11-09T05:19:35.697Z,11.85
2022-11-09T05:24:27.372Z,12.19
2022-11-09T05:29:19.043Z,11.42
2022-11-09T05:34:12.894Z,11.86
2022-11-09T05:39:04.555Z,11.99
2022-11-09T05:43:56.255Z,11.32
2022-11-09T05:48:48.000Z,12.94
2022-11-09T05:53:43.714Z,11.02
2022-11-09T05:58:38.944Z,12.91
2022-11-09T06:03:30.806Z,11.36
2022-11-09T06:08:22.480Z,12.06
2022-11-09T06:13:14.086Z,12.98
2022-11-09T06:18:05.838Z,12.35
2022-11-09T06:23:03.060Z,12.85
2022-11-09T06:27:55.772Z,12.48
2022-11-09T06:32:47.460Z,11.62
2022-11-09T06:37:39.114Z,13.36
2022-11-09T06:42:30.834Z,12.94
2022-11-09T06:47:22.828Z,11.47
2022-11-09T06:52:14.443Z,11.49
2022-11-09T06:57:06.164Z,10.92
2022-11-09T07:02:01.446Z,12.68
2022-11-09T07:06:53.515Z,12.43
2022-11-09T07:11:45.224Z,12.03
2022-11-09T07:16:37.554Z,12.00
2022-11-09T07:21:29.240Z,11.38
2022-11-09T07:26:21.361Z,12.01
2022-11-09T07:31:13.048Z,12.33
2022-11-09T07:36:05.652Z,11.91
2022-11-09T07:41:01.407Z,12.87
2022-11-09T07:45:53.236Z,13.14
2022-11-09T07:50:45.291Z,11.52
2022-11-09T07:55:37.983Z,13.45
2022-11-09T08:00:31.804Z,13.19
2022-11-09T08:05:23.717Z,11.09
2022-11-09T08:10:15.670Z,12.44
2022-11-09T08:15:07.739Z,12.27
2022-11-09T08:19:59.378Z,15.96
2022-11-09T08:24:51.338Z,15.40
2022-11-09T08:29:43.875Z,15.47
2022-11-09T08:34:35.551Z,15.33
2022-11-09T08:39:27.228Z,15.95
2022-11-09T08:44:19.365Z,15.42
2022-11-09T08:49:11.050Z,17.34
2022-11-09T08:54:04.017Z,16.61
2022-11-09T08:58:55.692Z,16.62
2022-11-09T09:03:48.209Z,16.58
2022-11-09T09:08:39.871Z,17.35
2022-11-09T09:13:32.238Z,16.65
2022-11-09T09:18:24.546Z,14.25
2022-11-09T09:23:17.096Z,13.14
2022-11-09T09:28:08.728Z,13.63
2022-11-09T09:33:01.357Z,15.74
2022-11-09T09:37:53.270Z,15.18
2022-11-09T09:42:45.212Z,15.33
2022-11-09T09:48:06.377Z,16.06
2022-11-09T09:53:22.681Z,16.01
2022-11-09T09:58:19.231Z,16.00
2022-11-09T10:03:17.351Z,16.04
2022-11-09T10:08:30.160Z,14.10
2022-11-09T10:13:57.460Z,16.09
2022-11-09T10:19:16.446Z,16.52
2022-11-09T10:24:31.158Z,15.57
2022-11-09T10:29:28.132Z,15.66
2022-11-09T10:34:36.370Z,15.75
2022-11-09T10:39:39.067Z,15.23
2022-11-09T10:44:49.886Z,15.77
2022-11-09T10:50:32.552Z,16.19
2022-11-09T10:55:57.055Z,16.91
2022-11-09T11:01:16.459Z,15.82
2022-11-09T11:06:33.716Z,16.03
2022-11-09T11:11:43.983Z,15.64
2022-11-09T11:16:56.146Z,15.73
2022-11-09T11:22:13.049Z,15.41
2022-11-09T11:27:56.423Z,16.85
2022-11-09T11:33:14.848Z,14.64
2022-11-09T11:38:56.116Z,16.48
2022-11-09T11:44:34.949Z,16.31
2022-11-09T11:49:59.309Z,16.49
2022-11-09T11:55:16.043Z,16.58
2022-11-09T12:00:26.548Z,14.83
2022-11-09T12:05:52.473Z,16.66
2022-11-09T12:11:12.087Z,15.43
2022-11-09T12:16:40.454Z,15.83
2022-11-09T12:22:16.828Z,16.98
2022-11-09T12:27:54.062Z,15.73
2022-11-09T12:33:13.293Z,15.29
2022-11-09T12:38:29.795Z,15.21
2022-11-09T12:43:57.956Z,15.08
2022-11-09T12:49:36.081Z,15.30
2022-11-09T12:54:49.766Z,15.77
2022-11-09T13:00:00.945Z,17.36
2022-11-09T13:05:48.617Z,16.93
2022-11-09T13:11:19.088Z,15.45
2022-11-09T13:16:35.626Z,15.51
2022-11-09T13:21:46.058Z,16.44
2022-11-09T13:27:04.476Z,16.05
2022-11-09T13:32:20.871Z,17.01
2022-11-09T13:37:40.720Z,17.03
2022-11-09T13:43:17.132Z,14.82
2022-11-09T13:48:34.786Z,16.66
2022-11-09T13:53:59.888Z,15.79
2022-11-09T13:59:33.968Z,14.82
2022-11-09T14:04:45.012Z,14.80
2022-11-09T14:10:35.321Z,14.93
2022-11-09T14:15:56.716Z,15.24
2022-11-09T14:21:27.808Z,14.70
2022-11-09T14:26:38.326Z,15.59
2022-11-09T14:31:48.936Z,15.42
2022-11-09T14:37:04.567Z,15.26
2022-11-09T14:42:23.241Z,13.35
2022-11-09T14:47:37.896Z,14.89
2022-11-09T14:52:50.452Z,15.24
2022-11-09T14:58:02.532Z,14.49
2022-11-09T15:03:22.796Z,15.78
2022-11-09T15:08:34.439Z,13.76
2022-11-09T15:13:44.677Z,15.29
2022-11-09T15:18:55.185Z,13.97
2022-11-09T15:24:08.828Z,15.31
2022-11-09T15:29:31.557Z,14.96
2022-11-09T15:34:52.607Z,12.57
2022-11-09T15:40:06.653Z,14.01
2022-11-09T15:45:19.228Z,12.06
2022-11-09T15:50:29.276Z,13.94
2022-11-09T15:55:39.830Z,11.87
2022-11-09T16:00:50.462Z,13.51
2022-11-09T16:06:01.486Z,12.55
2022-11-09T16:11:12.492Z,12.05
2022-11-09T16:16:23.083Z,12.02
2022-11-09T16:21:34.913Z,12.00
2022-11-09T16:26:46.047Z,12.25
2022-11-09T16:31:57.322Z,10.49
2022-11-09T16:37:07.784Z,10.65
2022-11-09T16:42:19.372Z,11.10
2022-11-09T16:47:29.733Z,11.03
2022-11-09T16:52:40.025Z,11.13
2022-11-09T16:57:50.361Z,11.06
2022-11-09T17:03:04.642Z,11.73
2022-11-09T17:08:15.069Z,11.04
2022-11-09T17:13:25.815Z,11.91
2022-11-09T17:18:38.548Z,10.95
2022-11-09T17:23:49.232Z,12.10
2022-11-09T17:28:59.518Z,10.98
2022-11-09T17:34:12.252Z,12.24
2022-11-09T17:39:22.839Z,10.71
2022-11-09T17:44:35.714Z,10.09
2022-11-09T17:49:45.812Z,12.28
2022-11-09T17:54:56.329Z,9.98
2022-11-09T18:00:07.893Z,11.53
2022-11-09T18:05:18.083Z,11.48
2022-11-09T18:10:28.595Z,11.24
2022-11-09T18:15:39.971Z,11.20
2022-11-09T18:20:50.961Z,10.14
2022-11-09T18:26:01.627Z,10.77
2022-11-09T18:31:13.739Z,11.73
2022-11-09T18:36:24.434Z,9.87
2022-11-09T18:41:34.772Z,10.44
2022-11-09T18:46:45.891Z,11.54
2022-11-09T18:51:57.155Z,10.66
2022-11-09T18:57:07.918Z,10.60
2022-11-09T19:02:18.559Z,11.34
2022-11-09T19:07:29.348Z,10.14
2022-11-09T19:12:39.888Z,10.90
2022-11-09T19:17:50.464Z,10.24
2022-11-09T19:23:00.911Z,10.18
2022-11-09T19:28:11.423Z,10.03
2022-11-09T19:33:22.540Z,10.70
2022-11-09T19:38:33.090Z,9.92
2022-11-09T19:43:43.363Z,11.30
2022-11-09T19:48:53.890Z,11.03
2022-11-09T19:54:05.977Z,10.70
2022-11-09T19:59:17.067Z,9.88
2022-11-09T20:04:28.634Z,9.56
2022-11-09T20:09:38.924Z,10.62
2022-11-09T20:14:49.414Z,9.40
2022-11-09T20:20:00.066Z,10.80
2022-11-09T20:25:10.531Z,8.66
2022-11-09T20:30:21.082Z,9.91
2022-11-09T20:35:31.625Z,9.42
2022-11-09T20:40:42.360Z,10.59
2022-11-09T20:45:53.558Z,10.36
2022-11-09T20:51:09.165Z,9.66
2022-11-09T20:56:20.773Z,9.23
2022-11-09T21:01:32.051Z,11.24
2022-11-09T21:06:42.561Z,10.67
2022-11-09T21:12:11.704Z,11.00
2022-11-09T21:17:22.115Z,11.45
2022-11-09T21:22:51.610Z,8.38
2022-11-09T21:28:20.913Z,9.89
2022-11-09T21:33:31.467Z,10.36
2022-11-09T21:38:42.187Z,11.19
2022-11-09T21:43:57.329Z,11.41
2022-11-09T21:49:09.372Z,10.89
2022-11-09T21:54:20.550Z,10.03
2022-11-09T21:59:30.889Z,9.79
2022-11-09T22:04:42.522Z,10.16
2022-11-09T22:15:42.117Z,9.77
2022-11-09T22:20:55.633Z,10.61
2022-11-09T22:26:06.263Z,10.48
2022-11-09T22:31:16.560Z,11.29
2022-11-09T22:36:27.000Z,9.15
2022-11-09T22:41:37.448Z,10.13
2022-11-09T22:46:49.165Z,10.49
2022-11-09T22:51:59.274Z,8.82
2022-11-09T22:57:10.994Z,10.03
2022-11-09T23:02:21.508Z,10.09
2022-11-09T23:07:31.849Z,9.91
2022-11-09T23:12:42.272Z,8.16
2022-11-09T23:18:12.208Z,8.80
2022-11-09T23:23:23.027Z,8.60
2022-11-09T23:28:34.513Z,10.27
2022-11-09T23:33:44.861Z,10.06
2022-11-09T23:38:55.223Z,10.02
2022-11-09T23:44:05.320Z,9.62
2022-11-09T23:49:15.898Z,9.21
2022-11-09T23:54:26.658Z,9.43
2022-11-09T23:59:36.807Z,9.21
